createdAt,value
2023-03-08T00:01:14.599Z,67.36
2023-03-08T00:02:37.914Z,67.33
2023-03-08T00:04:00.615Z,67.60
2023-03-08T00:05:23.164Z,67.82
2023-03-08T00:06:44.336Z,67.72
2023-03-08T00:08:08.853Z,67.75
2023-03-08T00:09:31.361Z,67.84
2023-03-08T00:10:55.222Z,68.10
2023-03-08T00:12:19.414Z,67.99
2023-03-08T00:13:42.348Z,68.09
2023-03-08T00:15:04.767Z,68.14
2023-03-08T00:16:26.151Z,68.10
2023-03-08T00:17:48.433Z,68.45
2023-03-08T00:19:09.619Z,68.46
2023-03-08T00:20:32.321Z,68.55
2023-03-08T00:21:54.575Z,68.78
2023-03-08T00:23:15.619Z,68.85
2023-03-08T00:24:41.019Z,68.78
2023-03-08T00:26:04.509Z,68.85
2023-03-08T00:27:27.238Z,69.04
2023-03-08T00:28:49.384Z,68.95
2023-03-08T00:30:13.283Z,68.97
2023-03-08T00:31:37.125Z,69.09
2023-03-08T00:32:58.188Z,69.41
2023-03-08T00:34:20.690Z,68.97
2023-03-08T00:35:42.063Z,69.33
2023-03-08T00:37:05.045Z,69.32
2023-03-08T00:38:26.828Z,69.33
2023-03-08T00:39:53.151Z,69.25
2023-03-08T00:41:16.031Z,69.07
2023-03-08T00:42:38.364Z,69.42
2023-03-08T00:44:01.407Z,69.52
2023-03-08T00:45:22.553Z,69.62
2023-03-08T00:46:44.973Z,69.73
2023-03-08T00:48:08.440Z,69.78
2023-03-08T00:49:31.086Z,69.83
2023-03-08T00:50:53.778Z,70.16
2023-03-08T00:52:16.088Z,70.13
2023-03-08T00:53:39.958Z,70.34
2023-03-08T00:55:01.272Z,70.41
2023-03-08T00:56:25.310Z,70.29
2023-03-08T00:57:46.823Z,70.71
2023-03-08T00:59:09.380Z,70.43
2023-03-08T01:00:31.793Z,70.55
2023-03-08T01:01:54.526Z,70.75
2023-03-08T01:03:17.389Z,70.76
2023-03-08T01:04:39.943Z,70.80
2023-03-08T01:06:08.808Z,70.89
2023-03-08T01:07:32.324Z,71.18
2023-03-08T01:08:55.447Z,71.17
2023-03-08T01:10:18.728Z,71.34
2023-03-08T01:11:43.671Z,71.17
2023-03-08T01:13:09.734Z,70.93
2023-03-08T01:14:31.409Z,70.78
2023-03-08T01:15:54.137Z,70.83
2023-03-08T01:17:16.409Z,70.99
2023-03-08T01:18:39.065Z,70.94
2023-03-08T01:20:01.594Z,70.76
2023-03-08T01:21:24.895Z,70.90
2023-03-08T01:22:49.398Z,70.75
2023-03-08T01:24:12.855Z,70.62
2023-03-08T01:25:35.119Z,70.62
2023-03-08T01:27:01.132Z,70.84
2023-03-08T01:28:22.075Z,70.73
2023-03-08T01:29:44.875Z,70.98
2023-03-08T01:31:17.905Z,71.19
2023-03-08T01:32:39.418Z,71.02
2023-03-08T01:34:02.002Z,70.97
2023-03-08T01:35:23.207Z,70.97
2023-03-08T01:36:45.627Z,71.05
2023-03-08T01:38:06.790Z,70.92
2023-03-08T01:39:29.060Z,70.77
2023-03-08T01:40:50.369Z,70.74
2023-03-08T01:42:14.125Z,70.54
2023-03-08T01:43:37.789Z,70.66
2023-03-08T01:45:04.799Z,70.80
2023-03-08T01:46:31.376Z,70.70
2023-03-08T01:48:22.074Z,70.65
2023-03-08T01:49:55.239Z,70.50
2023-03-08T01:51:22.917Z,70.55
2023-03-08T01:52:50.375Z,70.40
2023-03-08T01:54:18.997Z,70.52
2023-03-08T01:55:40.435Z,70.55
2023-03-08T01:57:06.017Z,70.64
2023-03-08T01:58:29.636Z,70.65
2023-03-08T01:59:54.232Z,70.42
2023-03-08T02:01:15.785Z,70.40
2023-03-08T02:02:43.603Z,70.29
2023-03-08T02:04:06.439Z,70.33
2023-03-08T02:05:30.924Z,70.45
2023-03-08T02:07:01.136Z,70.30
2023-03-08T02:08:22.379Z,70.68
2023-03-08T02:09:47.693Z,70.90
2023-03-08T02:11:10.860Z,70.99
2023-03-08T02:12:34.038Z,70.97
2023-03-08T02:13:57.339Z,71.06
2023-03-08T02:15:22.810Z,71.07
2023-03-08T02:16:49.462Z,71.17
2023-03-08T02:18:11.170Z,71.25
2023-03-08T02:19:42.889Z,71.46
2023-03-08T02:21:04.732Z,71.41
2023-03-08T02:22:29.892Z,71.26
2023-03-08T02:23:52.974Z,71.73
2023-03-08T02:25:17.214Z,71.56
2023-03-08T02:26:40.861Z,71.74
2023-03-08T02:28:05.141Z,71.71
2023-03-08T02:29:26.768Z,71.49
2023-03-08T02:30:51.472Z,71.76
2023-03-08T02:32:14.447Z,71.28
2023-03-08T02:33:35.731Z,71.76
2023-03-08T02:34:58.499Z,71.75
2023-03-08T02:36:19.602Z,72.03
2023-03-08T02:37:42.049Z,71.78
2023-03-08T02:39:06.161Z,71.73
2023-03-08T02:40:27.781Z,71.84
2023-03-08T02:41:51.445Z,71.95
2023-03-08T02:43:14.400Z,71.89
2023-03-08T02:44:35.883Z,72.15
2023-03-08T02:46:02.998Z,72.05
2023-03-08T02:47:47.165Z,72.11
2023-03-08T02:49:11.337Z,71.76
2023-03-08T02:50:38.856Z,72.04
2023-03-08T02:52:04.252Z,72.12
2023-03-08T02:53:26.397Z,72.37
2023-03-08T02:54:49.121Z,72.39
2023-03-08T02:56:11.514Z,72.34
2023-03-08T02:57:32.852Z,72.28
2023-03-08T02:58:55.136Z,72.24
2023-03-08T03:00:18.532Z,72.25
2023-03-08T03:01:41.289Z,72.30
2023-03-08T03:03:05.601Z,72.35
2023-03-08T03:04:31.139Z,72.26
2023-03-08T03:05:57.057Z,72.07
2023-03-08T03:07:34.228Z,72.17
2023-03-08T03:08:56.858Z,71.77
2023-03-08T03:10:21.128Z,71.75
2023-03-08T03:11:43.943Z,71.78
2023-03-08T03:13:06.802Z,71.99
2023-03-08T03:14:28.744Z,72.23
2023-03-08T03:15:51.992Z,71.96
2023-03-08T03:17:13.465Z,71.79
2023-03-08T03:18:35.610Z,71.95
2023-03-08T03:19:56.758Z,71.87
2023-03-08T03:21:19.474Z,72.09
2023-03-08T03:22:41.697Z,72.32
2023-03-08T03:24:03.264Z,72.26
2023-03-08T03:25:39.937Z,72.30
2023-03-08T03:27:06.604Z,72.22
2023-03-08T03:28:29.621Z,72.24
2023-03-08T03:29:54.944Z,72.26
2023-03-08T03:31:19.451Z,72.24
2023-03-08T03:32:42.087Z,72.10
2023-03-08T03:34:05.325Z,71.70
2023-03-08T03:35:28.082Z,72.01
2023-03-08T03:36:51.305Z,72.10
2023-03-08T03:38:13.896Z,72.16
2023-03-08T03:39:39.762Z,72.27
2023-03-08T03:41:07.060Z,72.09
2023-03-08T03:42:29.477Z,72.29
2023-03-08T03:44:01.048Z,72.28
2023-03-08T03:45:23.380Z,72.48
2023-03-08T03:46:46.117Z,72.48
2023-03-08T03:48:10.617Z,72.62
2023-03-08T03:49:33.293Z,72.42
2023-03-08T03:50:56.034Z,72.34
2023-03-08T03:52:18.640Z,72.22
2023-03-08T03:53:50.633Z,72.09
2023-03-08T03:55:13.997Z,71.88
2023-03-08T03:56:38.006Z,72.18
2023-03-08T03:58:01.876Z,71.95
2023-03-08T03:59:25.623Z,71.82
2023-03-08T04:00:49.104Z,72.13
2023-03-08T04:02:21.844Z,71.92
2023-03-08T04:03:48.982Z,71.91
2023-03-08T04:05:11.301Z,72.04
2023-03-08T04:06:35.354Z,72.25
2023-03-08T04:08:00.263Z,72.25
2023-03-08T04:09:25.777Z,72.45
2023-03-08T04:11:01.745Z,72.41
2023-03-08T04:12:25.242Z,72.45
2023-03-08T04:13:47.919Z,72.50
2023-03-08T04:15:17.275Z,72.49
2023-03-08T04:16:42.714Z,72.54
2023-03-08T04:18:23.508Z,72.64
2023-03-08T04:19:51.948Z,72.43
2023-03-08T04:21:47.512Z,72.34
2023-03-08T04:23:11.446Z,72.22
2023-03-08T04:24:37.540Z,72.33
2023-03-08T04:26:06.040Z,72.65
2023-03-08T04:27:32.528Z,72.80
2023-03-08T04:28:54.175Z,72.76
2023-03-08T04:30:17.871Z,73.25
2023-03-08T04:31:39.525Z,72.94
2023-03-08T04:33:06.282Z,73.11
2023-03-08T04:34:39.870Z,73.20
2023-03-08T04:36:02.167Z,73.08
2023-03-08T04:37:24.616Z,73.22
2023-03-08T04:38:51.295Z,73.37
2023-03-08T04:40:13.589Z,73.31
2023-03-08T04:41:46.059Z,73.14
2023-03-08T04:43:19.181Z,73.40
2023-03-08T04:44:42.210Z,73.33
2023-03-08T04:46:08.310Z,73.42
2023-03-08T04:47:32.798Z,73.49
2023-03-08T04:48:57.016Z,73.38
2023-03-08T04:50:22.180Z,73.72
2023-03-08T04:51:44.389Z,73.55
2023-03-08T04:53:08.316Z,73.55
2023-03-08T04:54:31.268Z,73.31
2023-03-08T04:55:59.317Z,73.46
2023-03-08T04:57:22.418Z,73.50
2023-03-08T04:58:49.510Z,73.65
2023-03-08T05:00:15.022Z,73.40
2023-03-08T05:01:39.053Z,73.35
2023-03-08T05:03:01.218Z,73.44
2023-03-08T05:04:26.357Z,73.44
2023-03-08T05:05:49.092Z,73.39
2023-03-08T05:07:11.413Z,73.56
2023-03-08T05:08:33.188Z,73.74
2023-03-08T05:09:55.529Z,73.66
2023-03-08T05:11:22.690Z,73.85
2023-03-08T05:12:44.291Z,73.78
2023-03-08T05:14:08.632Z,73.90
2023-03-08T05:15:30.278Z,73.66
2023-03-08T05:16:55.825Z,73.65
2023-03-08T05:18:17.006Z,73.54
2023-03-08T05:19:39.747Z,73.66
2023-03-08T05:21:05.300Z,73.47
2023-03-08T05:22:28.931Z,74.07
2023-03-08T05:23:53.087Z,73.77
2023-03-08T05:25:19.863Z,73.81
2023-03-08T05:26:42.357Z,74.03
2023-03-08T05:28:06.052Z,73.82
2023-03-08T05:29:30.422Z,73.80
2023-03-08T05:31:02.773Z,74.05
2023-03-08T05:32:26.255Z,73.87
2023-03-08T05:33:51.497Z,74.28
2023-03-08T05:35:21.741Z,74.38
2023-03-08T05:36:46.852Z,74.23
2023-03-08T05:38:08.084Z,74.24
2023-03-08T05:39:31.183Z,74.26
2023-03-08T05:41:06.505Z,74.25
2023-03-08T05:42:32.745Z,74.33
2023-03-08T05:43:55.617Z,74.45
2023-03-08T05:45:18.945Z,74.50
2023-03-08T05:46:41.390Z,74.60
2023-03-08T05:48:04.613Z,74.51
2023-03-08T05:49:29.503Z,74.61
2023-03-08T05:50:52.951Z,74.44
2023-03-08T05:52:17.310Z,74.52
2023-03-08T05:53:39.476Z,74.41
2023-03-08T05:55:01.715Z,74.49
2023-03-08T05:56:25.509Z,74.31
2023-03-08T05:57:58.107Z,74.48
2023-03-08T05:59:20.586Z,73.95
2023-03-08T06:00:44.465Z,74.11
2023-03-08T06:02:08.937Z,74.18
2023-03-08T06:03:48.274Z,74.09
2023-03-08T06:05:13.623Z,73.81
2023-03-08T06:06:36.707Z,73.95
2023-03-08T06:08:01.158Z,73.89
2023-03-08T06:09:22.690Z,74.03
2023-03-08T06:10:45.216Z,74.06
2023-03-08T06:12:08.509Z,74.13
2023-03-08T06:13:31.187Z,74.03
2023-03-08T06:14:52.197Z,73.83
2023-03-08T06:16:18.853Z,73.71
2023-03-08T06:17:41.318Z,73.77
2023-03-08T06:19:04.566Z,73.60
2023-03-08T06:20:28.747Z,73.19
2023-03-08T06:21:51.169Z,73.03
2023-03-08T06:23:12.196Z,72.75
2023-03-08T06:24:34.744Z,72.58
2023-03-08T06:26:01.266Z,72.49
2023-03-08T06:27:25.796Z,72.38
2023-03-08T06:28:52.462Z,72.31
2023-03-08T06:30:14.870Z,72.06
2023-03-08T06:31:43.714Z,71.79
2023-03-08T06:33:07.460Z,71.56
2023-03-08T06:34:29.865Z,71.69
2023-03-08T06:35:59.700Z,71.54
2023-03-08T06:37:22.542Z,71.26
2023-03-08T06:38:45.121Z,71.21
2023-03-08T06:40:09.420Z,71.32
2023-03-08T06:41:32.154Z,71.23
2023-03-08T06:42:56.436Z,71.25
2023-03-08T06:44:18.835Z,71.10
2023-03-08T06:45:41.539Z,71.02
2023-03-08T06:47:06.143Z,70.98
2023-03-08T06:48:27.738Z,70.71
2023-03-08T06:49:50.869Z,70.55
2023-03-08T06:51:13.661Z,70.23
2023-03-08T06:52:39.675Z,70.24
2023-03-08T06:54:03.510Z,70.04
2023-03-08T06:55:26.427Z,69.93
2023-03-08T06:56:49.084Z,69.79
2023-03-08T06:58:10.674Z,69.65
2023-03-08T06:59:32.942Z,69.81
2023-03-08T07:00:55.517Z,69.90
2023-03-08T07:02:19.501Z,69.89
2023-03-08T07:03:42.121Z,69.70
2023-03-08T07:05:04.802Z,69.31
2023-03-08T07:06:27.311Z,69.23
2023-03-08T07:07:49.988Z,69.16
2023-03-08T07:09:13.560Z,69.40
2023-03-08T07:10:39.310Z,69.25
2023-03-08T07:12:01.818Z,68.77
2023-03-08T07:13:24.422Z,68.26
2023-03-08T07:14:49.423Z,68.28
2023-03-08T07:16:14.622Z,67.88
2023-03-08T07:17:38.682Z,67.63
2023-03-08T07:19:02.486Z,67.66
2023-03-08T07:20:26.634Z,67.05
2023-03-08T07:21:49.012Z,67.08
2023-03-08T07:23:11.333Z,66.92
2023-03-08T07:24:33.570Z,67.07
2023-03-08T07:25:56.440Z,66.93
2023-03-08T07:27:19.130Z,66.70
2023-03-08T07:28:43.383Z,66.42
2023-03-08T07:30:09.838Z,66.49
2023-03-08T07:31:36.293Z,66.53
2023-03-08T07:32:59.275Z,65.91
2023-03-08T07:34:21.604Z,65.84
2023-03-08T07:35:43.950Z,65.85
2023-03-08T07:37:07.612Z,65.97
2023-03-08T07:38:29.725Z,65.82
2023-03-08T07:39:53.332Z,65.37
2023-03-08T07:41:15.843Z,65.19
2023-03-08T07:42:38.066Z,65.24
2023-03-08T07:44:19.537Z,65.50
2023-03-08T07:45:42.340Z,65.06
2023-03-08T07:47:04.804Z,64.67
2023-03-08T07:48:29.664Z,64.65
2023-03-08T07:49:52.349Z,64.78
2023-03-08T07:51:15.004Z,64.62
2023-03-08T07:52:37.187Z,64.34
2023-03-08T07:53:59.515Z,64.29
2023-03-08T07:55:22.435Z,63.74
2023-03-08T07:56:44.819Z,63.42
2023-03-08T07:58:07.276Z,63.62
2023-03-08T07:59:29.737Z,63.68
2023-03-08T08:00:52.024Z,63.72
2023-03-08T08:02:15.933Z,63.27
2023-03-08T08:03:40.831Z,63.10
2023-03-08T08:05:04.189Z,62.71
2023-03-08T08:06:27.187Z,62.67
2023-03-08T08:07:49.916Z,62.70
2023-03-08T08:09:14.895Z,62.34
2023-03-08T08:10:37.783Z,62.25
2023-03-08T08:12:00.399Z,62.07
2023-03-08T08:13:22.500Z,62.07
2023-03-08T08:14:45.369Z,62.40
2023-03-08T08:16:08.795Z,62.40
2023-03-08T08:17:31.373Z,62.40
2023-03-08T08:18:55.892Z,61.81
2023-03-08T08:20:18.769Z,61.65
2023-03-08T08:21:41.406Z,61.25
2023-03-08T08:23:09.471Z,61.26
2023-03-08T08:24:33.554Z,61.38
2023-03-08T08:25:56.603Z,61.50
2023-03-08T08:27:22.612Z,61.25
2023-03-08T08:28:46.827Z,60.96
2023-03-08T08:30:15.466Z,60.97
2023-03-08T08:31:38.074Z,61.00
2023-03-08T08:33:03.727Z,61.08
2023-03-08T08:34:27.964Z,61.23
2023-03-08T08:36:03.282Z,61.32
2023-03-08T08:37:26.741Z,61.74
2023-03-08T08:38:49.659Z,61.72
2023-03-08T08:40:13.651Z,61.24
2023-03-08T08:41:36.562Z,60.89
2023-03-08T08:42:59.171Z,60.96
2023-03-08T08:44:21.514Z,61.25
2023-03-08T08:45:47.366Z,60.92
2023-03-08T08:47:09.973Z,61.29
2023-03-08T08:48:33.430Z,61.73
2023-03-08T08:49:57.740Z,61.84
2023-03-08T08:51:19.326Z,61.94
2023-03-08T08:52:44.005Z,62.62
2023-03-08T08:54:07.079Z,62.72
2023-03-08T08:55:29.564Z,62.36
2023-03-08T08:56:51.790Z,62.15
2023-03-08T08:58:14.449Z,62.10
2023-03-08T08:59:36.966Z,62.05
2023-03-08T09:00:59.284Z,61.67
2023-03-08T09:02:22.894Z,61.68
2023-03-08T09:03:45.191Z,61.52
2023-03-08T09:05:10.883Z,61.62
2023-03-08T09:06:33.413Z,61.62
2023-03-08T09:07:58.569Z,60.42
2023-03-08T09:09:23.300Z,59.80
2023-03-08T09:10:45.658Z,60.13
2023-03-08T09:12:08.840Z,60.14
2023-03-08T09:13:33.763Z,59.75
2023-03-08T09:14:56.714Z,59.38
2023-03-08T09:16:20.534Z,59.02
2023-03-08T09:17:45.784Z,58.45
2023-03-08T09:19:08.968Z,58.17
2023-03-08T09:20:34.885Z,56.92
2023-03-08T09:21:57.825Z,56.82
2023-03-08T09:23:20.557Z,56.90
2023-03-08T09:24:43.006Z,57.18
2023-03-08T09:26:06.231Z,57.02
2023-03-08T09:27:28.876Z,57.00
2023-03-08T09:28:51.239Z,56.48
2023-03-08T09:30:15.642Z,55.36
2023-03-08T09:31:39.616Z,54.92
2023-03-08T09:33:04.163Z,55.49
2023-03-08T09:34:26.882Z,55.68
2023-03-08T09:35:58.696Z,55.17
2023-03-08T09:37:21.030Z,55.59
2023-03-08T09:38:43.898Z,55.36
2023-03-08T09:40:10.305Z,55.42
2023-03-08T09:42:08.050Z,55.33
2023-03-08T09:43:49.098Z,55.47
2023-03-08T09:45:24.704Z,54.38
2023-03-08T09:47:01.789Z,53.92
2023-03-08T09:48:29.900Z,53.71
2023-03-08T09:50:22.959Z,53.61
2023-03-08T09:52:24.547Z,52.81
2023-03-08T09:53:58.067Z,51.93
2023-03-08T09:55:30.502Z,51.68
2023-03-08T09:56:56.563Z,50.91
2023-03-08T09:58:32.698Z,50.39
2023-03-08T10:00:21.949Z,49.96
2023-03-08T10:02:08.754Z,50.84
2023-03-08T10:04:18.008Z,51.68
2023-03-08T10:06:21.285Z,52.18
2023-03-08T10:08:13.483Z,52.10
2023-03-08T10:09:41.866Z,51.66
2023-03-08T10:11:18.040Z,51.04
2023-03-08T10:12:51.835Z,50.78
2023-03-08T10:14:21.059Z,50.63
2023-03-08T10:15:47.450Z,50.17
2023-03-08T10:17:15.159Z,50.22
2023-03-08T10:18:44.787Z,50.33
2023-03-08T10:20:14.671Z,50.15
2023-03-08T10:21:42.218Z,50.56
2023-03-08T10:23:21.274Z,50.71
2023-03-08T10:25:01.800Z,51.21
2023-03-08T10:26:30.738Z,51.82
2023-03-08T10:27:59.480Z,52.75
2023-03-08T10:29:22.256Z,52.63
2023-03-08T10:30:48.327Z,52.53
2023-03-08T10:32:15.277Z,52.23
2023-03-08T10:33:39.179Z,52.57
2023-03-08T10:35:05.720Z,52.63
2023-03-08T10:36:30.532Z,52.73
2023-03-08T10:37:53.611Z,53.08
2023-03-08T10:39:17.969Z,53.58
2023-03-08T10:40:44.755Z,53.79
2023-03-08T10:42:16.438Z,53.69
2023-03-08T10:43:51.174Z,53.78
2023-03-08T10:45:32.469Z,53.41
2023-03-08T10:47:06.687Z,53.96
2023-03-08T10:48:33.753Z,54.06
2023-03-08T10:50:24.879Z,54.49
2023-03-08T10:52:05.840Z,54.87
2023-03-08T10:53:40.258Z,54.80
2023-03-08T10:55:19.974Z,54.53
2023-03-08T10:56:54.105Z,54.87
2023-03-08T10:58:36.523Z,54.84
2023-03-08T11:00:05.652Z,55.02
2023-03-08T11:01:31.871Z,55.20
2023-03-08T11:03:04.921Z,54.94
2023-03-08T11:04:28.638Z,55.43
2023-03-08T11:05:57.037Z,55.26
2023-03-08T11:07:25.042Z,55.63
2023-03-08T11:08:55.275Z,55.38
2023-03-08T11:10:20.121Z,55.73
2023-03-08T11:11:43.687Z,56.17
2023-03-08T11:13:31.610Z,56.44
2023-03-08T11:14:54.777Z,57.23
2023-03-08T11:16:30.707Z,57.01
2023-03-08T11:17:57.827Z,57.49
2023-03-08T11:19:54.161Z,57.81
2023-03-08T11:21:30.938Z,57.82
2023-03-08T11:23:06.482Z,58.23
2023-03-08T11:24:42.856Z,58.31
2023-03-08T11:26:13.871Z,58.79
2023-03-08T11:27:51.651Z,58.78
2023-03-08T11:29:30.442Z,58.77
2023-03-08T11:31:06.066Z,58.92
2023-03-08T11:32:42.440Z,58.91
2023-03-08T11:34:30.538Z,59.40
2023-03-08T11:36:04.565Z,59.54
2023-03-08T11:37:50.466Z,59.79
2023-03-08T11:39:20.734Z,60.07
2023-03-08T11:40:53.630Z,59.88
2023-03-08T11:42:37.906Z,59.87
2023-03-08T11:44:17.895Z,60.29
2023-03-08T11:45:49.564Z,60.39
2023-03-08T11:47:52.833Z,60.26
2023-03-08T11:49:38.264Z,60.64
2023-03-08T11:51:04.017Z,61.48
2023-03-08T11:52:38.928Z,60.91
2023-03-08T11:54:12.035Z,59.98
2023-03-08T11:55:48.010Z,59.60
2023-03-08T11:57:13.009Z,59.19
2023-03-08T11:58:43.394Z,58.62
2023-03-08T12:00:14.577Z,58.00
2023-03-08T12:01:48.508Z,57.14
2023-03-08T12:03:18.115Z,56.88
2023-03-08T12:05:03.799Z,56.48
2023-03-08T12:06:41.491Z,56.92
2023-03-08T12:08:27.956Z,56.64
2023-03-08T12:10:01.189Z,56.63
2023-03-08T12:11:28.880Z,56.61
2023-03-08T12:12:58.148Z,56.58
2023-03-08T12:14:30.388Z,56.50
2023-03-08T12:16:10.072Z,56.44
2023-03-08T12:17:40.610Z,56.64
2023-03-08T12:19:12.774Z,56.93
2023-03-08T12:20:41.489Z,56.71
2023-03-08T12:22:32.655Z,56.48
2023-03-08T12:24:11.306Z,57.04
2023-03-08T12:25:40.468Z,57.09
2023-03-08T12:27:27.105Z,56.82
2023-03-08T12:29:01.600Z,57.05
2023-03-08T12:30:36.557Z,57.24
2023-03-08T12:32:03.323Z,56.97
2023-03-08T12:33:30.739Z,56.88
2023-03-08T12:35:06.891Z,56.77
2023-03-08T12:36:42.946Z,56.97
2023-03-08T12:38:09.170Z,57.31
2023-03-08T12:39:45.502Z,57.01
2023-03-08T12:41:25.565Z,56.78
2023-03-08T12:42:48.911Z,57.11
2023-03-08T12:44:25.974Z,56.91
2023-03-08T12:46:01.643Z,57.20
2023-03-08T12:47:24.920Z,57.15
2023-03-08T12:48:52.508Z,57.03
2023-03-08T12:50:20.106Z,57.14
2023-03-08T12:51:51.118Z,57.16
2023-03-08T12:53:30.327Z,57.22
2023-03-08T12:55:15.084Z,57.33
2023-03-08T12:56:56.713Z,57.66
2023-03-08T12:58:24.868Z,57.95
2023-03-08T12:59:58.352Z,57.96
2023-03-08T13:02:05.205Z,58.00
2023-03-08T13:04:37.418Z,58.01
2023-03-08T13:06:16.041Z,58.32
2023-03-08T13:08:14.851Z,58.28
2023-03-08T13:10:08.361Z,58.37
2023-03-08T13:11:48.352Z,58.06
2023-03-08T13:13:38.572Z,57.97
2023-03-08T13:15:23.873Z,57.69
2023-03-08T13:17:07.753Z,57.68
2023-03-08T13:19:05.440Z,57.78
2023-03-08T13:20:56.551Z,57.92
2023-03-08T13:22:29.873Z,57.81
2023-03-08T13:24:09.553Z,57.61
2023-03-08T13:26:29.923Z,57.79
2023-03-08T13:28:26.327Z,58.01
2023-03-08T13:30:00.221Z,58.23
2023-03-08T13:31:42.662Z,58.00
2023-03-08T13:39:23.769Z,60.19
2023-03-08T13:44:53.656Z,59.84
2023-03-08T14:05:59.231Z,62.36
2023-03-08T14:07:45.636Z,62.73
2023-03-08T14:09:12.504Z,62.42
2023-03-08T14:10:48.736Z,62.21
2023-03-08T14:12:19.073Z,62.54
2023-03-08T14:13:46.957Z,62.87
2023-03-08T14:15:20.206Z,62.79
2023-03-08T14:16:45.363Z,63.22
2023-03-08T14:18:11.775Z,63.17
2023-03-08T14:19:38.840Z,63.33
2023-03-08T14:21:09.824Z,63.16
2023-03-08T14:22:44.253Z,63.23
2023-03-08T14:24:22.665Z,63.26
2023-03-08T14:25:49.752Z,63.62
2023-03-08T14:27:34.866Z,63.82
2023-03-08T14:29:22.205Z,64.24
2023-03-08T14:30:49.275Z,64.38
2023-03-08T14:32:31.069Z,64.57
2023-03-08T14:34:01.947Z,64.57
2023-03-08T14:35:27.914Z,64.78
2023-03-08T14:36:56.828Z,64.95
2023-03-08T14:38:34.554Z,65.21
2023-03-08T14:40:19.118Z,65.50
2023-03-08T14:41:45.071Z,65.79
2023-03-08T14:43:16.955Z,66.19
2023-03-08T14:44:40.113Z,66.44
2023-03-08T14:46:07.717Z,66.44
2023-03-08T14:47:39.974Z,66.80
2023-03-08T14:49:27.672Z,66.75
2023-03-08T14:50:58.508Z,67.10
2023-03-08T14:52:26.555Z,67.51
2023-03-08T14:53:59.125Z,67.84
2023-03-08T14:55:33.343Z,68.04
2023-03-08T14:57:18.349Z,68.15
2023-03-08T14:58:43.867Z,68.00
2023-03-08T15:00:14.336Z,67.66
2023-03-08T15:01:38.901Z,68.00
2023-03-08T15:03:02.352Z,68.36
2023-03-08T15:04:27.694Z,68.62
2023-03-08T15:05:55.955Z,68.53
2023-03-08T15:07:22.406Z,68.57
2023-03-08T15:08:49.488Z,68.77
2023-03-08T15:10:25.503Z,68.94
2023-03-08T15:11:50.826Z,69.07
2023-03-08T15:13:16.661Z,68.95
2023-03-08T15:14:39.183Z,68.79
2023-03-08T15:19:29.664Z,69.71
2023-03-08T15:21:01.825Z,69.74
2023-03-08T15:22:46.144Z,70.12
2023-03-08T15:24:18.432Z,70.38
2023-03-08T15:25:49.519Z,70.60
2023-03-08T15:27:19.639Z,70.87
2023-03-08T15:28:44.281Z,70.85
2023-03-08T15:30:07.939Z,70.92
2023-03-08T15:31:31.339Z,71.26
2023-03-08T15:32:54.469Z,71.49
2023-03-08T15:34:17.024Z,71.62
2023-03-08T15:35:40.341Z,71.52
2023-03-08T15:37:02.878Z,71.77
2023-03-08T15:38:25.662Z,71.82
2023-03-08T15:39:50.924Z,71.86
2023-03-08T15:41:14.256Z,71.95
2023-03-08T15:42:36.816Z,72.05
2023-03-08T15:43:59.438Z,71.86
2023-03-08T15:45:21.994Z,72.14
2023-03-08T15:46:44.369Z,72.30
2023-03-08T15:48:08.651Z,72.53
2023-03-08T15:49:30.913Z,72.75
2023-03-08T15:50:53.452Z,72.40
2023-03-08T15:52:16.310Z,72.64
2023-03-08T15:53:38.877Z,72.56
2023-03-08T15:55:03.093Z,72.52
2023-03-08T15:56:26.294Z,72.51
2023-03-08T15:57:49.385Z,72.62
2023-03-08T15:59:23.424Z,72.80
2023-03-08T16:00:49.428Z,72.81
2023-03-08T16:02:16.458Z,73.21
2023-03-08T16:03:39.319Z,73.33
2023-03-08T16:05:02.382Z,73.52
2023-03-08T16:06:28.582Z,73.62
2023-03-08T16:07:55.568Z,73.76
2023-03-08T16:09:25.710Z,74.02
2023-03-08T16:10:51.092Z,74.10
2023-03-08T16:12:14.813Z,74.32
2023-03-08T16:13:37.003Z,74.46
2023-03-08T16:14:59.920Z,74.72
2023-03-08T16:16:45.112Z,74.77
2023-03-08T16:18:16.578Z,74.82
2023-03-08T16:19:45.388Z,75.03
2023-03-08T16:21:16.022Z,74.87
2023-03-08T16:22:43.399Z,75.11
2023-03-08T16:24:17.082Z,75.01
2023-03-08T16:26:13.991Z,74.83
2023-03-08T16:27:51.840Z,74.92
2023-03-08T16:29:18.791Z,74.92
2023-03-08T16:30:51.944Z,74.98
2023-03-08T16:32:16.355Z,75.10
2023-03-08T16:33:39.946Z,75.49
2023-03-08T16:35:04.442Z,75.33
2023-03-08T16:36:27.317Z,75.34
2023-03-08T16:37:55.396Z,75.45
2023-03-08T16:39:52.576Z,75.54
2023-03-08T16:41:37.362Z,75.74
2023-03-08T16:43:08.485Z,75.39
2023-03-08T16:44:32.040Z,75.59
2023-03-08T16:45:59.613Z,75.58
2023-03-08T16:47:43.969Z,75.70
2023-03-08T16:49:10.354Z,75.79
2023-03-08T16:50:32.816Z,75.73
2023-03-08T16:51:55.634Z,76.02
2023-03-08T16:53:18.400Z,75.86
2023-03-08T16:54:41.500Z,76.13
2023-03-08T16:56:04.690Z,76.07
2023-03-08T16:57:33.253Z,76.33
2023-03-08T16:59:31.403Z,76.15
2023-03-08T17:00:55.814Z,76.27
2023-03-08T17:02:23.317Z,76.20
2023-03-08T17:03:50.621Z,76.33
2023-03-08T17:05:14.216Z,76.46
2023-03-08T17:06:36.631Z,76.67
2023-03-08T17:07:59.128Z,76.65
2023-03-08T17:09:22.090Z,76.69
2023-03-08T17:10:46.329Z,76.73
2023-03-08T17:12:10.432Z,76.89
2023-03-08T17:13:33.484Z,76.69
2023-03-08T17:14:57.853Z,76.92
2023-03-08T17:16:21.407Z,76.93
2023-03-08T17:17:47.032Z,76.68
2023-03-08T17:19:10.652Z,77.02
2023-03-08T17:20:33.333Z,77.15
2023-03-08T17:21:56.039Z,77.29
2023-03-08T17:23:23.567Z,77.05
2023-03-08T17:24:49.541Z,77.05
2023-03-08T17:26:16.341Z,77.09
2023-03-08T17:27:39.295Z,77.02
2023-03-08T17:29:02.036Z,77.09
2023-03-08T17:30:26.537Z,77.09
2023-03-08T17:31:52.774Z,76.92
2023-03-08T17:33:17.843Z,76.78
2023-03-08T17:34:40.282Z,77.12
2023-03-08T17:36:03.216Z,77.00
2023-03-08T17:37:25.942Z,77.08
2023-03-08T17:39:01.776Z,77.23
2023-03-08T17:40:26.787Z,77.36
2023-03-08T17:41:49.309Z,77.28
2023-03-08T17:43:11.960Z,77.53
2023-03-08T17:44:35.064Z,77.62
2023-03-08T17:46:58.982Z,77.76
2023-03-08T17:48:59.454Z,77.76
2023-03-08T17:50:31.113Z,77.61
2023-03-08T17:51:55.062Z,77.96
2023-03-08T17:53:17.573Z,77.78
2023-03-08T17:54:40.315Z,77.90
2023-03-08T17:56:06.355Z,78.05
2023-03-08T17:57:29.032Z,78.08
2023-03-08T17:58:52.053Z,78.35
2023-03-08T18:00:18.548Z,78.33
2023-03-08T18:01:42.717Z,78.30
2023-03-08T18:03:04.656Z,78.37
2023-03-08T18:04:27.333Z,78.35
2023-03-08T18:05:50.862Z,78.30
2023-03-08T18:07:13.912Z,78.22
2023-03-08T18:08:37.306Z,78.30
2023-03-08T18:09:59.558Z,78.30
2023-03-08T18:11:23.758Z,78.33
2023-03-08T18:12:47.440Z,78.37
2023-03-08T18:14:13.522Z,78.34
2023-03-08T18:15:36.069Z,78.40
2023-03-08T18:17:00.862Z,78.41
2023-03-08T18:18:23.360Z,78.33
2023-03-08T18:19:46.605Z,78.41
2023-03-08T18:21:13.781Z,78.55
2023-03-08T18:22:40.831Z,78.47
2023-03-08T18:24:06.823Z,78.26
2023-03-08T18:25:31.408Z,78.58
2023-03-08T18:26:54.257Z,78.52
2023-03-08T18:28:22.276Z,78.63
2023-03-08T18:29:44.902Z,78.66
2023-03-08T18:31:09.423Z,78.85
2023-03-08T18:32:34.299Z,78.78
2023-03-08T18:34:06.365Z,78.94
2023-03-08T18:35:35.532Z,79.09
2023-03-08T18:36:59.110Z,79.08
2023-03-08T18:38:23.129Z,78.74
2023-03-08T18:40:00.466Z,78.95
2023-03-08T18:41:27.371Z,79.20
2023-03-08T18:43:04.385Z,78.98
2023-03-08T18:44:58.489Z,79.02
2023-03-08T18:46:28.821Z,78.86
2023-03-08T18:47:57.270Z,79.03
2023-03-08T18:49:20.361Z,78.84
2023-03-08T18:50:47.584Z,78.87
2023-03-08T18:52:12.797Z,79.26
2023-03-08T18:53:41.644Z,78.92
2023-03-08T18:55:04.176Z,78.92
2023-03-08T18:56:27.703Z,79.02
2023-03-08T19:00:55.581Z,78.97
2023-03-08T19:03:18.647Z,79.07
2023-03-08T19:05:16.698Z,79.12
2023-03-08T19:06:46.880Z,79.17
2023-03-08T19:10:53.709Z,79.03
2023-03-08T19:12:20.395Z,79.04
2023-03-08T19:13:42.065Z,79.14
2023-03-08T19:15:04.316Z,79.14
2023-03-08T19:16:26.980Z,79.25
2023-03-08T19:17:49.837Z,79.30
2023-03-08T19:19:14.513Z,79.14
2023-03-08T19:20:40.056Z,79.04
2023-03-08T19:22:04.528Z,79.04
2023-03-08T19:23:26.836Z,79.11
2023-03-08T19:24:49.068Z,79.21
2023-03-08T19:26:31.306Z,79.40
2023-03-08T19:27:53.902Z,79.29
2023-03-08T19:29:23.447Z,79.59
2023-03-08T19:30:44.948Z,79.55